Time;durP1;ratioP1;P1;durP2;ratioP2;P2;SDS_P1;SDS_P2;PMS_P1;PMS_P2;Temp;Humidity;BMP_temperature;BMP_pressure;BME280_temperature;BME280_humidity;BME280_pressure;Samples;Min_cycle;Max_cycle;Signal;HPM_P1;HPM_P2
2024/01/16 00:01:26;;;;;;;4.63;1.73;;;-1.30;99.90;;;;;;8196120;28;20566;-64
2024/01/16 00:05:27;;;;;;;6.03;2.20;;;-1.40;99.90;;;;;;8181351;28;20192;-64
2024/01/16 00:09:28;;;;;;;3.37;1.80;;;-1.50;99.90;;;;;;8192990;28;20393;-64
2024/01/16 00:13:29;;;;;;;7.00;2.43;;;-1.60;99.90;;;;;;8180640;28;20198;-64
2024/01/16 00:17:30;;;;;;;4.43;1.87;;;-1.70;99.90;;;;;;8196881;28;20219;-64
2024/01/16 00:21:30;;;;;;;3.60;2.30;;;-1.80;99.90;;;;;;8182426;28;20266;-64
2024/01/16 00:25:31;;;;;;;6.43;2.23;;;-1.80;99.90;;;;;;8192610;28;20200;-64
2024/01/16 00:29:35;;;;;;;7.93;2.33;;;-1.80;99.90;;;;;;8181449;28;20191;-64
2024/01/16 00:33:36;;;;;;;4.30;2.20;;;-1.90;99.90;;;;;;8211484;28;20197;-64
2024/01/16 00:37:37;;;;;;;7.93;2.47;;;-1.90;99.90;;;;;;8181378;28;20212;-64
2024/01/16 00:41:38;;;;;;;5.53;2.77;;;-1.90;99.90;;;;;;8179588;28;20189;-64
2024/01/16 00:45:40;;;;;;;6.33;2.27;;;-1.80;99.90;;;;;;8178870;28;20249;-64
2024/01/16 00:49:44;;;;;;;4.70;2.30;;;-1.80;99.90;;;;;;8193509;28;20200;-65
2024/01/16 00:53:45;;;;;;;7.47;2.30;;;-1.80;99.90;;;;;;8195332;28;20216;-65
2024/01/16 00:57:45;;;;;;;4.17;1.77;;;-1.80;99.90;;;;;;8210314;28;20408;-63
2024/01/16 01:01:47;;;;;;;5.13;2.17;;;-1.80;99.90;;;;;;8206447;28;20194;-64
2024/01/16 01:05:48;;;;;;;2.93;1.73;;;-1.80;99.90;;;;;;8210630;28;20197;-65
2024/01/16 01:09:49;;;;;;;6.53;1.80;;;-1.70;99.90;;;;;;8171406;28;20290;-65
2024/01/16 01:13:50;;;;;;;3.70;2.33;;;-1.70;99.90;;;;;;8175879;28;20261;-65
2024/01/16 01:17:51;;;;;;;3.27;2.03;;;-1.60;99.90;;;;;;8192267;28;20243;-65
2024/01/16 01:21:51;;;;;;;9.40;2.20;;;-1.50;99.90;;;;;;8207640;28;20200;-64
2024/01/16 01:25:52;;;;;;;8.77;2.20;;;-1.50;99.90;;;;;;8182701;28;20184;-65
2024/01/16 01:29:53;;;;;;;6.40;1.90;;;-1.50;99.90;;;;;;8190627;28;20196;-64
2024/01/16 01:33:54;;;;;;;6.73;2.17;;;-1.50;99.90;;;;;;8180299;28;20194;-63
2024/01/16 01:37:54;;;;;;;4.80;2.73;;;-1.50;99.90;;;;;;8194927;28;20277;-63
2024/01/16 01:41:55;;;;;;;4.27;2.20;;;-1.50;99.90;;;;;;8180589;28;20196;-63
2024/01/16 01:46:17;;;;;;;8.00;2.50;;;-1.50;99.90;;;;;;8178422;28;20213;-64
2024/01/16 01:50:18;;;;;;;4.20;2.20;;;-1.60;99.90;;;;;;8184014;28;20184;-65
2024/01/16 01:54:20;;;;;;;4.83;2.40;;;-1.60;99.90;;;;;;8212480;28;20192;-64
2024/01/16 01:58:21;;;;;;;5.10;2.83;;;-1.50;99.90;;;;;;8210435;28;20257;-65
2024/01/16 02:02:22;;;;;;;8.20;3.43;;;-1.60;99.90;;;;;;8179529;28;20203;-63
2024/01/16 02:06:23;;;;;;;6.80;3.57;;;-1.60;99.90;;;;;;8174807;28;20206;-64
2024/01/16 02:10:24;;;;;;;6.07;3.33;;;-1.60;99.90;;;;;;8177045;28;20250;-64
2024/01/16 02:14:25;;;;;;;4.97;3.20;;;-1.50;99.90;;;;;;8207247;28;20197;-63
2024/01/16 02:18:25;;;;;;;7.57;2.73;;;-1.50;99.90;;;;;;8179434;28;20656;-63
2024/01/16 02:22:29;;;;;;;5.90;2.80;;;-1.50;99.90;;;;;;8178231;28;20192;-63
2024/01/16 02:26:30;;;;;;;5.97;3.03;;;-1.60;99.90;;;;;;8177743;28;20196;-63
2024/01/16 02:30:31;;;;;;;3.90;2.33;;;-1.60;99.90;;;;;;8193007;28;20200;-64
2024/01/16 02:34:32;;;;;;;6.97;3.10;;;-1.60;99.90;;;;;;8180191;28;20191;-63
2024/01/16 02:38:34;;;;;;;7.63;3.37;;;-1.60;99.90;;;;;;8175873;28;20238;-63
2024/01/16 02:42:36;;;;;;;5.03;3.53;;;-1.60;99.90;;;;;;8179656;28;20205;-63
2024/01/16 02:46:38;;;;;;;5.63;3.33;;;-1.60;99.90;;;;;;8189037;28;20203;-63
2024/01/16 02:50:39;;;;;;;4.50;2.80;;;-1.60;99.90;;;;;;8188894;28;20200;-63
2024/01/16 02:54:40;;;;;;;4.63;2.87;;;-1.50;99.90;;;;;;8196024;28;20192;-63
2024/01/16 02:58:44;;;;;;;4.10;2.50;;;-1.50;99.90;;;;;;8183347;28;20298;-64
2024/01/16 03:02:44;;;;;;;2.67;1.73;;;-1.40;99.90;;;;;;8200521;28;20185;-63
2024/01/16 03:06:45;;;;;;;2.93;1.40;;;-1.30;99.90;;;;;;8183077;28;20195;-63
2024/01/16 03:10:46;;;;;;;3.20;1.40;;;-1.20;99.90;;;;;;8180978;28;20212;-63
2024/01/16 03:14:47;;;;;;;1.87;1.40;;;-1.20;99.90;;;;;;8182076;28;20200;-63
2024/01/16 03:18:48;;;;;;;4.20;1.80;;;-1.10;99.90;;;;;;8184743;28;20219;-63
2024/01/16 03:22:49;;;;;;;3.83;1.63;;;-1.20;99.90;;;;;;8198692;28;20181;-63
2024/01/16 03:26:50;;;;;;;1.80;1.40;;;-1.20;99.90;;;;;;8195619;28;20279;-62
2024/01/16 03:31:14;;;;;;;1.70;1.53;;;-1.10;99.90;;;;;;8230837;28;20248;-63
2024/01/16 03:35:15;;;;;;;1.97;1.37;;;-1.00;99.90;;;;;;8217232;28;20268;-63
2024/01/16 03:39:16;;;;;;;4.23;2.43;;;-0.90;99.90;;;;;;8199127;29;20208;-63
2024/01/16 03:43:17;;;;;;;3.43;2.23;;;-0.90;99.90;;;;;;8221978;28;20185;-63
2024/01/16 03:47:19;;;;;;;4.07;2.00;;;-0.90;99.90;;;;;;8202324;28;20185;-64
2024/01/16 03:51:20;;;;;;;6.43;2.60;;;-0.90;99.90;;;;;;8212750;28;20665;-64
2024/01/16 03:55:21;;;;;;;3.73;2.57;;;-0.80;99.90;;;;;;8203492;28;20181;-64
2024/01/16 03:59:22;;;;;;;4.90;2.67;;;-0.80;99.90;;;;;;8233868;28;20237;-64
2024/01/16 04:03:22;;;;;;;5.03;2.57;;;-0.80;99.90;;;;;;8218494;28;20530;-64
2024/01/16 04:07:26;;;;;;;6.73;2.67;;;-0.80;99.90;;;;;;8213555;28;20185;-65
2024/01/16 04:11:27;;;;;;;5.80;3.07;;;-0.70;99.90;;;;;;8211747;28;20203;-64
2024/01/16 04:15:28;;;;;;;4.07;3.00;;;-0.60;99.90;;;;;;8198849;28;20188;-65
2024/01/16 04:19:33;;;;;;;7.07;3.90;;;-0.60;99.90;;;;;;8204048;28;20208;-65
2024/01/16 04:23:34;;;;;;;5.03;3.00;;;-0.50;99.90;;;;;;8211554;28;20200;-65
2024/01/16 04:27:34;;;;;;;4.03;3.20;;;-0.40;99.90;;;;;;8210874;28;20288;-64
2024/01/16 04:31:40;;;;;;;4.20;3.80;;;-0.40;99.90;;;;;;8186405;28;20196;-65
2024/01/16 04:35:41;;;;;;;8.03;3.57;;;-0.40;99.90;;;;;;8203731;28;20190;-64
2024/01/16 04:39:41;;;;;;;3.80;3.50;;;-0.30;99.90;;;;;;8172030;28;20224;-64
2024/01/16 04:43:42;;;;;;;5.20;3.57;;;-0.30;99.90;;;;;;8176777;28;20185;-66
2024/01/16 04:47:43;;;;;;;3.60;2.77;;;-0.30;99.90;;;;;;8186209;28;20276;-64
2024/01/16 04:51:44;;;;;;;8.40;4.23;;;-0.30;99.90;;;;;;8175349;28;20189;-64
2024/01/16 04:55:47;;;;;;;5.07;3.17;;;-0.40;99.90;;;;;;8188917;28;20200;-64
2024/01/16 04:59:48;;;;;;;4.13;3.30;;;-0.30;99.90;;;;;;8207810;28;20217;-64
2024/01/16 05:03:49;;;;;;;4.80;3.53;;;-0.30;99.90;;;;;;8177070;28;20185;-63
2024/01/16 05:07:51;;;;;;;6.13;3.07;;;-0.30;99.90;;;;;;8177338;28;20185;-64
2024/01/16 05:11:51;;;;;;;7.33;3.67;;;-0.30;99.90;;;;;;8191794;28;20205;-65
2024/01/16 05:15:52;;;;;;;6.43;3.47;;;-0.30;99.90;;;;;;8175704;28;20251;-63
2024/01/16 05:19:53;;;;;;;5.27;3.53;;;-0.30;99.90;;;;;;8175671;28;20217;-65
2024/01/16 05:23:54;;;;;;;4.57;3.53;;;-0.40;99.90;;;;;;8192728;28;20197;-64
2024/01/16 05:27:54;;;;;;;6.03;4.13;;;-0.40;99.90;;;;;;8193035;28;20209;-63
2024/01/16 05:31:58;;;;;;;4.17;2.30;;;-0.40;99.90;;;;;;8178207;28;20200;-63
2024/01/16 05:35:59;;;;;;;3.87;2.13;;;-0.40;99.90;;;;;;8177476;28;20204;-64
2024/01/16 05:40:00;;;;;;;4.53;2.30;;;-0.70;99.90;;;;;;8192876;28;20244;-63
2024/01/16 05:44:03;;;;;;;2.63;1.80;;;-1.00;99.90;;;;;;8215653;28;20248;-63
2024/01/16 05:48:06;;;;;;;4.33;2.67;;;-1.10;99.90;;;;;;8224867;28;20227;-63
2024/01/16 05:52:07;;;;;;;3.17;1.90;;;-1.30;99.90;;;;;;8201674;28;20271;-63
2024/01/16 05:56:08;;;;;;;2.40;1.40;;;-1.50;99.90;;;;;;8178240;28;20242;-63
2024/01/16 06:00:13;;;;;;;3.53;1.47;;;-1.50;99.90;;;;;;8210200;28;20211;-63
2024/01/16 06:04:15;;;;;;;6.10;3.10;;;-1.60;99.90;;;;;;8210286;28;20196;-63
2024/01/16 06:08:15;;;;;;;2.53;1.57;;;-1.60;99.90;;;;;;8197917;28;20194;-63
2024/01/16 06:12:18;;;;;;;13.53;7.30;;;-1.50;99.90;;;;;;8210540;28;20200;-62
2024/01/16 06:16:19;;;;;;;11.20;6.03;;;-1.50;99.90;;;;;;8214017;28;20198;-63
2024/01/16 06:20:20;;;;;;;2.50;1.73;;;-1.50;99.90;;;;;;8197361;28;20185;-63
2024/01/16 06:24:21;;;;;;;4.77;1.80;;;-1.50;99.90;;;;;;8200698;28;20208;-63
2024/01/16 06:28:22;;;;;;;1.47;1.30;;;-1.50;99.90;;;;;;8194074;28;20199;-63
2024/01/16 06:32:22;;;;;;;1.67;1.40;;;-1.50;99.90;;;;;;8206441;28;20199;-63
2024/01/16 06:36:24;;;;;;;1.60;1.17;;;-1.50;99.90;;;;;;8202333;28;20188;-62
2024/01/16 06:40:24;;;;;;;1.30;1.20;;;-1.50;99.90;;;;;;8219844;28;20185;-62
2024/01/16 06:44:25;;;;;;;1.27;1.10;;;-1.50;99.90;;;;;;8221973;28;20188;-63
2024/01/16 06:48:26;;;;;;;3.27;1.63;;;-1.40;99.90;;;;;;8202865;28;20197;-64
2024/01/16 06:52:27;;;;;;;2.40;1.47;;;-1.40;99.90;;;;;;8205109;28;20185;-64
2024/01/16 06:56:28;;;;;;;2.80;1.47;;;-1.30;99.90;;;;;;8206233;28;20189;-63
2024/01/16 07:00:29;;;;;;;2.00;1.27;;;-1.30;99.90;;;;;;8214098;28;20288;-64
2024/01/16 07:04:30;;;;;;;1.10;1.00;;;-1.20;99.90;;;;;;8180041;28;20178;-63
2024/01/16 07:08:31;;;;;;;1.63;1.50;;;-1.20;99.90;;;;;;8176803;28;20200;-64
2024/01/16 07:12:32;;;;;;;3.70;1.80;;;-1.20;99.90;;;;;;8183609;28;20201;-64
2024/01/16 07:16:33;;;;;;;2.57;1.40;;;-1.30;99.90;;;;;;8195539;28;20310;-64
2024/01/16 07:20:34;;;;;;;2.37;1.70;;;-1.30;99.90;;;;;;8181027;28;20277;-64
2024/01/16 07:24:35;;;;;;;2.00;1.80;;;-1.30;99.90;;;;;;8174449;28;20188;-63
2024/01/16 07:28:35;;;;;;;2.40;1.40;;;-1.20;99.90;;;;;;8186497;28;20622;-64
2024/01/16 07:32:36;;;;;;;3.80;1.60;;;-1.20;99.90;;;;;;8214156;28;20281;-63
2024/01/16 07:36:37;;;;;;;1.67;1.40;;;-1.20;99.90;;;;;;8208499;28;20244;-64
2024/01/16 07:40:38;;;;;;;2.37;1.77;;;-1.00;99.90;;;;;;8222639;28;20189;-62
2024/01/16 07:44:39;;;;;;;2.57;1.80;;;-0.90;99.90;;;;;;8221002;28;20233;-64
2024/01/16 07:48:41;;;;;;;3.43;1.80;;;-0.70;99.90;;;;;;8216168;28;20224;-64
2024/01/16 07:52:42;;;;;;;3.47;1.90;;;-0.60;99.90;;;;;;8200816;28;20196;-62
2024/01/16 07:56:45;;;;;;;3.57;2.30;;;-0.60;99.90;;;;;;8201517;28;20205;-63
2024/01/16 08:00:45;;;;;;;2.63;2.20;;;-0.60;99.90;;;;;;8220595;28;20233;-63
2024/01/16 08:04:46;;;;;;;2.83;1.90;;;-0.60;99.90;;;;;;8219326;28;20248;-62
2024/01/16 08:08:48;;;;;;;2.90;2.17;;;-0.60;99.90;;;;;;8217175;28;20318;-63
2024/01/16 08:12:49;;;;;;;3.73;2.53;;;-0.50;99.90;;;;;;8223095;28;20205;-63
2024/01/16 08:16:50;;;;;;;4.53;2.70;;;-0.50;99.90;;;;;;8214762;28;20233;-64
2024/01/16 08:20:50;;;;;;;5.10;2.47;;;-0.40;99.90;;;;;;8197692;28;20208;-65
2024/01/16 08:24:51;;;;;;;4.00;2.50;;;-0.20;99.90;;;;;;8205180;28;20188;-64
2024/01/16 08:28:52;;;;;;;2.30;2.10;;;-0.20;99.90;;;;;;8216013;28;20181;-63
2024/01/16 08:32:53;;;;;;;2.10;1.83;;;-0.10;99.90;;;;;;8213457;28;20189;-63
2024/01/16 08:36:56;;;;;;;2.37;2.10;;;-0.20;99.90;;;;;;8227044;28;20204;-63
2024/01/16 08:40:57;;;;;;;3.40;2.00;;;-0.10;99.90;;;;;;8193862;28;20488;-64
2024/01/16 08:44:58;;;;;;;2.30;2.10;;;0.00;99.90;;;;;;8167417;28;20188;-65
2024/01/16 08:48:59;;;;;;;1.90;1.60;;;0.10;99.90;;;;;;8163554;28;20200;-65
2024/01/16 08:52:59;;;;;;;1.93;1.73;;;0.20;99.90;;;;;;8166874;28;20324;-64
2024/01/16 08:57:00;;;;;;;2.17;1.70;;;0.20;99.90;;;;;;8201291;28;20224;-64
2024/01/16 09:01:02;;;;;;;2.37;1.77;;;0.10;99.90;;;;;;8195771;28;20523;-64
2024/01/16 09:05:03;;;;;;;2.40;1.80;;;0.10;99.90;;;;;;8183191;28;20185;-62
2024/01/16 09:09:04;;;;;;;3.63;1.97;;;0.20;99.90;;;;;;8206146;28;20288;-64
2024/01/16 09:13:05;;;;;;;2.97;2.00;;;0.10;99.90;;;;;;8182497;28;20243;-63
2024/01/16 09:17:06;;;;;;;6.10;1.77;;;0.00;99.90;;;;;;8196589;28;20300;-63
2024/01/16 09:21:07;;;;;;;3.63;1.90;;;0.20;99.90;;;;;;8180437;28;20190;-64
2024/01/16 09:25:07;;;;;;;1.80;1.70;;;0.10;99.90;;;;;;8169388;28;20232;-64
2024/01/16 09:29:10;;;;;;;2.83;2.07;;;0.00;99.90;;;;;;8197496;28;20296;-64
2024/01/16 09:33:11;;;;;;;5.83;1.73;;;0.00;99.90;;;;;;8167463;28;20516;-64
2024/01/16 09:37:14;;;;;;;3.47;2.00;;;-0.10;99.90;;;;;;8198289;28;20213;-65
2024/01/16 09:41:15;;;;;;;2.90;1.97;;;0.00;99.90;;;;;;8169080;28;20189;-63
2024/01/16 09:45:21;;;;;;;4.47;1.80;;;0.00;99.90;;;;;;8165326;28;20189;-64
2024/01/16 09:49:23;;;;;;;3.97;1.93;;;0.00;99.90;;;;;;8178353;28;20193;-64
2024/01/16 09:53:29;;;;;;;3.93;2.40;;;0.30;99.90;;;;;;8198955;28;20283;-63
2024/01/16 09:57:31;;;;;;;2.43;1.93;;;0.70;99.90;;;;;;8215702;28;20207;-63
2024/01/16 10:01:33;;;;;;;3.30;2.20;;;1.00;99.90;;;;;;8201757;28;20206;-63
2024/01/16 10:05:35;;;;;;;4.00;1.80;;;0.70;90.80;;;;;;8213816;28;20185;-63
2024/01/16 10:09:38;;;;;;;2.83;1.63;;;0.50;85.50;;;;;;8210819;28;20197;-62
2024/01/16 10:13:41;;;;;;;3.43;1.70;;;0.30;99.90;;;;;;8218935;28;20264;-61
2024/01/16 10:17:42;;;;;;;3.27;2.10;;;0.20;99.90;;;;;;8206434;28;20208;-63
2024/01/16 10:21:43;;;;;;;1.70;1.57;;;0.00;99.90;;;;;;8212415;28;20296;-63
2024/01/16 10:25:44;;;;;;;2.93;1.57;;;0.00;99.90;;;;;;8217601;28;20189;-63
2024/01/16 10:29:58;;;;;;;1.63;1.53;;;0.00;99.90;;;;;;8223811;28;20192;-63
2024/01/16 10:33:59;;;;;;;1.43;1.33;;;0.20;73.20;;;;;;8205101;28;20193;-63
2024/01/16 10:38:03;;;;;;;1.90;1.50;;;0.50;1.00;;;;;;8226918;28;20204;-64
2024/01/16 10:42:03;;;;;;;2.40;1.60;;;0.30;1.00;;;;;;8207409;28;20187;-62
2024/01/16 10:46:15;;;;;;;1.83;1.50;;;0.20;99.90;;;;;;8227250;28;20185;-63
2024/01/16 10:50:16;;;;;;;2.57;1.33;;;0.30;99.90;;;;;;8212088;28;20193;-63
2024/01/16 10:54:17;;;;;;;1.83;1.37;;;0.40;99.90;;;;;;8223014;28;20193;-63
2024/01/16 10:58:25;;;;;;;2.30;1.50;;;0.30;99.90;;;;;;8205161;28;20230;-63
2024/01/16 11:02:33;;;;;;;1.67;1.30;;;0.40;99.90;;;;;;8199806;28;20193;-66
2024/01/16 11:06:34;;;;;;;2.83;1.53;;;0.50;99.90;;;;;;8213790;28;20182;-62
2024/01/16 11:10:36;;;;;;;1.30;1.20;;;0.50;99.90;;;;;;8213163;28;20208;-61
2024/01/16 11:14:37;;;;;;;2.47;1.50;;;0.50;99.90;;;;;;8219110;28;20192;-62
2024/01/16 11:18:42;;;;;;;2.77;1.30;;;0.50;99.90;;;;;;8193682;28;20209;-62
2024/01/16 11:22:45;;;;;;;2.47;1.37;;;0.60;94.00;;;;;;8215658;28;20177;-62
2024/01/16 11:26:46;;;;;;;1.40;1.30;;;0.70;74.40;;;;;;8214740;28;20220;-62
2024/01/16 11:30:47;;;;;;;3.00;2.20;;;0.90;66.70;;;;;;8198253;28;20192;-62
2024/01/16 11:34:49;;;;;;;2.60;1.70;;;1.10;66.10;;;;;;8197436;28;20185;-61
2024/01/16 11:38:57;;;;;;;2.57;1.93;;;0.90;13.20;;;;;;8201081;28;20308;-63
2024/01/16 11:42:58;;;;;;;2.70;1.30;;;0.70;38.40;;;;;;8227030;28;20185;-62
2024/01/16 11:47:06;;;;;;;1.47;1.37;;;0.80;49.00;;;;;;8195798;28;20189;-63
2024/01/16 11:51:24;;;;;;;2.53;1.60;;;0.80;61.10;;;;;;8215782;28;20213;-64
2024/01/16 11:55:36;;;;;;;1.63;1.53;;;1.00;63.30;;;;;;8211969;28;20224;-64
2024/01/16 11:59:59;;;;;;;1.67;1.30;;;1.10;99.90;;;;;;8226117;28;20252;-63
2024/01/16 12:04:06;;;;;;;3.17;1.70;;;1.20;93.70;;;;;;8204760;28;20195;-63
2024/01/16 12:08:07;;;;;;;1.70;1.50;;;1.10;91.50;;;;;;8207221;28;20193;-64
2024/01/16 12:12:07;;;;;;;3.33;1.40;;;1.30;95.00;;;;;;8181732;28;20204;-64
2024/01/16 12:16:08;;;;;;;2.73;1.53;;;1.40;76.20;;;;;;8204063;28;20196;-65
2024/01/16 12:20:19;;;;;;;3.17;1.73;;;1.50;52.30;;;;;;8186387;28;20625;-62
2024/01/16 12:24:20;;;;;;;2.20;1.60;;;1.20;67.40;;;;;;8198214;28;20190;-63
2024/01/16 12:28:21;;;;;;;2.60;1.20;;;0.90;99.90;;;;;;8234460;28;20193;-64
2024/01/16 12:32:22;;;;;;;3.00;2.07;;;0.90;99.90;;;;;;8194238;28;20189;-64
2024/01/16 12:36:23;;;;;;;4.80;1.90;;;0.40;99.90;;;;;;8172027;28;20260;-64
2024/01/16 12:40:24;;;;;;;3.10;1.70;;;0.30;1.00;;;;;;8165574;28;20216;-64
2024/01/16 12:44:29;;;;;;;2.17;1.40;;;0.20;1.00;;;;;;8193290;28;20189;-64
2024/01/16 12:48:30;;;;;;;2.43;1.50;;;0.70;1.00;;;;;;8166967;28;20578;-64
2024/01/16 12:52:31;;;;;;;1.43;1.33;;;1.00;99.90;;;;;;8169443;28;20225;-65
2024/01/16 12:56:32;;;;;;;2.90;1.60;;;0.80;99.90;;;;;;8172636;28;20276;-65
2024/01/16 13:00:33;;;;;;;3.17;1.40;;;0.60;99.90;;;;;;8164881;28;20208;-64
2024/01/16 13:04:34;;;;;;;1.87;1.73;;;0.70;99.90;;;;;;8162640;28;20592;-65
2024/01/16 13:08:35;;;;;;;3.40;1.77;;;1.00;99.90;;;;;;8164736;28;20193;-65
2024/01/16 13:12:36;;;;;;;3.50;1.73;;;1.20;76.10;;;;;;8164423;28;20209;-66
2024/01/16 13:16:37;;;;;;;4.47;1.97;;;1.30;24.40;;;;;;8164083;28;20248;-66
2024/01/16 13:20:38;;;;;;;3.00;2.07;;;1.20;25.30;;;;;;8198842;28;20193;-65
2024/01/16 13:24:39;;;;;;;1.70;1.53;;;1.20;18.70;;;;;;8175112;28;20189;-63
2024/01/16 13:28:40;;;;;;;2.60;1.97;;;0.90;16.10;;;;;;8160701;28;20191;-64
2024/01/16 13:32:41;;;;;;;3.87;1.80;;;0.80;21.80;;;;;;8177811;28;20182;-64
2024/01/16 13:36:43;;;;;;;3.47;1.67;;;0.50;28.90;;;;;;8175992;28;20196;-63
2024/01/16 13:40:44;;;;;;;3.13;1.93;;;0.30;58.60;;;;;;8175525;28;20273;-63
2024/01/16 13:44:45;;;;;;;2.60;1.77;;;0.20;99.90;;;;;;8189092;28;20245;-63
2024/01/16 13:48:46;;;;;;;4.53;1.90;;;0.20;99.90;;;;;;8174416;28;20430;-63
2024/01/16 13:52:47;;;;;;;2.67;1.83;;;0.30;99.90;;;;;;8189593;28;20259;-63
2024/01/16 13:56:47;;;;;;;3.43;1.40;;;0.30;99.90;;;;;;8172635;28;20211;-63
2024/01/16 14:00:48;;;;;;;4.17;1.87;;;0.30;99.90;;;;;;8167914;28;20297;-63
2024/01/16 14:04:49;;;;;;;4.80;1.93;;;0.40;99.90;;;;;;8170596;28;20185;-62
2024/01/16 14:08:49;;;;;;;4.70;1.87;;;0.50;99.90;;;;;;8201591;28;20216;-63
2024/01/16 14:12:52;;;;;;;5.13;2.10;;;0.60;99.90;;;;;;8174466;28;20263;-62
2024/01/16 14:16:54;;;;;;;3.13;2.00;;;0.50;99.90;;;;;;8184142;28;20213;-62
2024/01/16 14:20:54;;;;;;;7.27;3.30;;;0.50;94.60;;;;;;8174762;28;20183;-63
2024/01/16 14:24:55;;;;;;;8.40;3.80;;;0.40;94.30;;;;;;8188318;28;20196;-64
2024/01/16 14:28:56;;;;;;;3.20;2.53;;;0.40;87.30;;;;;;8204305;28;20200;-64
2024/01/16 14:32:57;;;;;;;8.97;3.77;;;0.20;87.70;;;;;;8169832;28;20193;-63
2024/01/16 14:36:58;;;;;;;7.97;3.70;;;0.00;66.30;;;;;;8192786;28;20220;-63
2024/01/16 14:40:59;;;;;;;6.87;3.83;;;-0.10;88.80;;;;;;8203450;28;20182;-62
2024/01/16 14:45:01;;;;;;;5.40;3.07;;;-0.20;99.70;;;;;;8196850;28;20186;-61
2024/01/16 14:49:02;;;;;;;6.57;3.60;;;-0.30;99.90;;;;;;8200479;28;20182;-63
2024/01/16 14:53:05;;;;;;;6.67;3.13;;;-0.30;99.90;;;;;;8202324;28;20181;-62
2024/01/16 14:57:09;;;;;;;7.67;3.87;;;-0.40;99.90;;;;;;8198345;28;20202;-62
2024/01/16 15:01:10;;;;;;;6.33;3.73;;;-0.60;98.90;;;;;;8218372;28;20245;-62
2024/01/16 15:05:12;;;;;;;6.70;4.03;;;-0.80;99.90;;;;;;8206668;28;20261;-63
2024/01/16 15:09:13;;;;;;;6.83;3.90;;;-0.90;99.90;;;;;;8216802;28;20200;-63
2024/01/16 15:13:14;;;;;;;9.03;4.00;;;-1.10;99.90;;;;;;8201370;28;20188;-62
2024/01/16 15:17:15;;;;;;;9.37;4.33;;;-1.20;99.90;;;;;;8220563;28;20212;-62
2024/01/16 15:21:16;;;;;;;7.50;3.70;;;-1.40;99.90;;;;;;8210611;28;20177;-63
2024/01/16 15:25:21;;;;;;;8.17;3.73;;;-1.50;99.90;;;;;;8204521;28;20185;-63
2024/01/16 15:29:29;;;;;;;8.80;4.97;;;-1.60;99.90;;;;;;8213308;28;20203;-63
2024/01/16 15:33:30;;;;;;;7.50;4.63;;;-1.70;99.90;;;;;;8220664;28;20188;-63
2024/01/16 15:37:32;;;;;;;8.97;4.70;;;-1.70;99.90;;;;;;8218743;28;20211;-62
2024/01/16 15:41:33;;;;;;;11.77;4.03;;;-1.70;99.90;;;;;;8219517;28;20227;-63
2024/01/16 15:45:37;;;;;;;8.67;5.00;;;-1.70;99.90;;;;;;8214523;28;20181;-62
2024/01/16 15:49:48;;;;;;;7.20;4.77;;;-1.80;99.90;;;;;;8224538;28;20217;-62
2024/01/16 15:53:48;;;;;;;9.37;5.53;;;-1.80;99.90;;;;;;8187484;28;20599;-63
2024/01/16 15:57:49;;;;;;;11.03;6.23;;;-2.00;99.90;;;;;;8191824;28;20211;-63
2024/01/16 16:01:53;;;;;;;11.00;6.47;;;-2.20;99.90;;;;;;8205486;28;20193;-62
2024/01/16 16:05:54;;;;;;;18.87;11.17;;;-2.30;99.90;;;;;;8201259;28;20267;-62
2024/01/16 16:09:54;;;;;;;34.10;20.83;;;-2.40;99.90;;;;;;8191594;28;20234;-63
2024/01/16 16:13:55;;;;;;;27.67;15.50;;;-2.30;99.90;;;;;;8189312;28;20198;-64
2024/01/16 16:17:56;;;;;;;26.83;16.63;;;-2.20;1.00;;;;;;8175943;28;20215;-63
2024/01/16 16:21:57;;;;;;;24.20;12.57;;;-2.10;1.00;;;;;;8203196;28;20228;-63
2024/01/16 16:25:58;;;;;;;25.47;13.00;;;-1.90;99.90;;;;;;8188041;28;20216;-62
2024/01/16 16:29:58;;;;;;;54.33;26.87;;;-1.90;99.90;;;;;;8174442;28;20220;-63
2024/01/16 16:34:01;;;;;;;94.93;45.00;;;-1.90;99.90;;;;;;8165609;28;20196;-63
2024/01/16 16:38:02;;;;;;;27.33;16.40;;;-2.10;99.90;;;;;;8166930;28;20212;-64
2024/01/16 16:42:03;;;;;;;16.13;7.17;;;-2.20;99.90;;;;;;8164506;28;20181;-63
2024/01/16 16:46:04;;;;;;;15.87;7.73;;;-2.30;99.90;;;;;;8164232;28;20231;-64
2024/01/16 16:50:05;;;;;;;16.13;8.13;;;-2.30;99.90;;;;;;8167185;28;20203;-64
2024/01/16 16:54:06;;;;;;;13.40;7.50;;;-2.40;99.90;;;;;;8161594;28;20437;-64
2024/01/16 16:58:09;;;;;;;11.63;6.67;;;-2.50;99.90;;;;;;8165106;28;20230;-64
2024/01/16 17:02:09;;;;;;;13.17;6.83;;;-2.60;99.90;;;;;;8179642;28;20488;-64
2024/01/16 17:06:10;;;;;;;11.60;6.90;;;-2.80;99.90;;;;;;8195459;28;20304;-63
2024/01/16 17:10:11;;;;;;;12.00;6.50;;;-2.90;99.90;;;;;;8162653;28;20202;-62
2024/01/16 17:14:13;;;;;;;13.63;7.37;;;-2.90;99.90;;;;;;8167123;28;20226;-63
2024/01/16 17:18:14;;;;;;;11.80;6.17;;;-2.80;1.00;;;;;;8175765;28;20270;-63
2024/01/16 17:22:18;;;;;;;13.40;6.57;;;-2.60;1.00;;;;;;8178113;28;20191;-64
2024/01/16 17:26:19;;;;;;;11.43;6.13;;;-2.40;1.00;;;;;;8167266;28;20181;-64
2024/01/16 17:30:20;;;;;;;13.37;6.10;;;-2.20;1.00;;;;;;8163165;28;20202;-64
2024/01/16 17:34:22;;;;;;;10.47;5.50;;;-2.10;99.90;;;;;;8197883;28;20206;-64
2024/01/16 17:38:23;;;;;;;9.60;5.47;;;-2.30;99.90;;;;;;8163059;28;20274;-65
2024/01/16 17:42:24;;;;;;;12.17;6.27;;;-2.30;99.90;;;;;;8174882;28;20185;-64
2024/01/16 17:46:24;;;;;;;18.50;8.37;;;-2.40;99.90;;;;;;8156519;28;20191;-63
2024/01/16 17:50:26;;;;;;;17.37;8.13;;;-2.40;99.90;;;;;;8182885;28;20198;-64
2024/01/16 17:54:26;;;;;;;17.70;9.57;;;-2.60;99.90;;;;;;8174464;28;20224;-64
2024/01/16 17:58:27;;;;;;;12.43;7.60;;;-2.70;99.90;;;;;;8162020;28;20229;-64
2024/01/16 18:02:31;;;;;;;15.00;8.07;;;-2.70;99.90;;;;;;8173139;28;20510;-64
2024/01/16 18:06:34;;;;;;;13.87;8.57;;;-2.70;99.90;;;;;;8167935;28;20201;-64
2024/01/16 18:10:35;;;;;;;13.70;7.87;;;-2.60;99.90;;;;;;8164035;28;20214;-63
2024/01/16 18:14:38;;;;;;;10.73;7.37;;;-2.50;99.90;;;;;;8181630;28;20279;-63
2024/01/16 18:18:40;;;;;;;17.40;9.63;;;-2.30;99.90;;;;;;8175102;28;20306;-63
2024/01/16 18:22:41;;;;;;;18.90;10.23;;;-2.10;99.90;;;;;;8175939;28;20332;-64
2024/01/16 18:26:48;;;;;;;13.17;8.27;;;-2.00;99.90;;;;;;8183402;28;20182;-64
2024/01/16 18:30:51;;;;;;;10.73;6.17;;;-2.00;99.90;;;;;;8178539;28;20191;-63
2024/01/16 18:34:52;;;;;;;11.10;5.40;;;-2.00;99.90;;;;;;8169160;28;20181;-64
2024/01/16 18:38:52;;;;;;;12.90;5.33;;;-2.00;99.90;;;;;;8169878;28;20261;-64
2024/01/16 18:42:53;;;;;;;9.63;4.83;;;-2.00;99.90;;;;;;8181692;28;20227;-63
2024/01/16 18:46:54;;;;;;;10.30;4.80;;;-2.00;99.90;;;;;;8171281;28;20185;-65
2024/01/16 18:50:55;;;;;;;14.63;5.93;;;-2.10;99.90;;;;;;8171380;28;20179;-65
2024/01/16 18:54:56;;;;;;;12.50;5.07;;;-2.30;99.90;;;;;;8168496;28;20212;-65
2024/01/16 18:58:57;;;;;;;12.30;5.80;;;-2.30;99.90;;;;;;8175538;28;20444;-65
2024/01/16 19:02:59;;;;;;;8.23;5.10;;;-2.40;99.90;;;;;;8172608;28;20247;-64
2024/01/16 19:07:00;;;;;;;13.10;5.87;;;-2.40;99.90;;;;;;8167907;28;20185;-65
2024/01/16 19:11:01;;;;;;;8.33;5.37;;;-2.40;99.90;;;;;;8201744;28;20200;-64
2024/01/16 19:15:02;;;;;;;10.90;5.77;;;-2.30;99.90;;;;;;8199900;28;20384;-64
2024/01/16 19:19:02;;;;;;;12.27;5.63;;;-2.20;99.90;;;;;;8194231;28;20281;-64
2024/01/16 19:23:05;;;;;;;11.13;7.07;;;-2.20;99.90;;;;;;8183817;28;20202;-64
2024/01/16 19:27:08;;;;;;;13.67;6.10;;;-2.20;99.90;;;;;;8167751;28;20676;-64
2024/01/16 19:31:10;;;;;;;14.67;6.40;;;-2.40;99.90;;;;;;8168829;28;20211;-64
2024/01/16 19:35:11;;;;;;;11.77;6.40;;;-2.40;99.90;;;;;;8166685;28;20195;-64
2024/01/16 19:39:15;;;;;;;11.67;6.37;;;-2.50;99.90;;;;;;8178592;28;20228;-64
2024/01/16 19:43:16;;;;;;;13.23;6.60;;;-2.60;99.90;;;;;;8232474;28;20251;-65
2024/01/16 19:47:17;;;;;;;12.40;5.60;;;-2.60;99.90;;;;;;8205302;28;20570;-63
2024/01/16 19:51:19;;;;;;;14.13;6.57;;;-2.70;99.90;;;;;;8190366;28;20199;-63
2024/01/16 19:55:26;;;;;;;13.07;6.37;;;-2.80;99.90;;;;;;8175559;28;20188;-65
2024/01/16 19:59:28;;;;;;;15.23;6.93;;;-2.90;99.90;;;;;;8171785;28;20223;-64
2024/01/16 20:03:32;;;;;;;12.33;6.03;;;-3.00;99.90;;;;;;8174950;28;20195;-66
2024/01/16 20:07:33;;;;;;;30.67;12.37;;;-3.20;99.90;;;;;;8182787;28;20198;-64
2024/01/16 20:11:35;;;;;;;14.00;7.60;;;-3.20;99.90;;;;;;8167027;28;20289;-65
2024/01/16 20:15:36;;;;;;;13.00;6.83;;;-3.20;99.90;;;;;;8183354;28;20203;-67
2024/01/16 20:19:36;;;;;;;13.90;6.73;;;-3.20;99.90;;;;;;8168048;28;20215;-65
2024/01/16 20:23:40;;;;;;;14.17;7.87;;;-3.20;99.90;;;;;;8206777;28;20218;-66
2024/01/16 20:27:41;;;;;;;13.63;7.67;;;-3.20;99.90;;;;;;8165070;28;20222;-65
2024/01/16 20:31:44;;;;;;;14.07;8.50;;;-3.20;99.90;;;;;;8172426;28;20189;-65
2024/01/16 20:35:45;;;;;;;15.40;7.67;;;-3.20;99.90;;;;;;8179382;28;20201;-66
2024/01/16 20:39:47;;;;;;;14.47;7.70;;;-3.20;1.00;;;;;;8182598;28;20249;-66
2024/01/16 20:43:48;;;;;;;18.73;7.10;;;-3.20;1.00;;;;;;8164668;28;20196;-65
2024/01/16 20:47:51;;;;;;;16.60;7.23;;;-3.10;1.00;;;;;;8165534;28;20194;-65
2024/01/16 20:51:55;;;;;;;18.23;7.20;;;-3.20;1.00;;;;;;8177984;28;20313;-65
2024/01/16 20:55:56;;;;;;;21.67;9.43;;;-3.20;1.00;;;;;;8181159;28;20258;-64
2024/01/16 20:59:57;;;;;;;15.27;7.83;;;-3.20;1.00;;;;;;8167901;28;20214;-65